Airfield :
LOGIN :

Register | Disclaimer

   EN    FR    IT 

 










Legend :    VFR   Marginal VFR   IFR   Intensive IFR   Very Intensive IFR
Visi :
Ceiling :
>= 8 km
>= 3000ft
5 to 8 km
1000 to 3000 ft
1500m to 5 km
500 to 1000 ft
800 to 1500m
200 to 500 ft
< 800m
< 200 ft
Symbols :   Thunderstorms  Fog  Heavy snow  Heavy precipitations  Wind > 20 kt
SIGMETs :     Misc.  Thunderstorms  Icing  Turbulence  Mountain Waves  Volcanic Ashes







- Airport Elevation : 53 ft
- IATA code : HAM


EDDH - Hamburg

CURRENT METAR :
  • 170050Z 11001KT 4500 1500NW R15/0450N BCFG NSC 12/12 Q1019 TEMPO 0600 FG

EXPIRED METARs :
  • 170020Z 00000KT 2500 0600NW R23/0900VP2000U R15/0375V1100U BCFG NSC 11/10 Q1019 TEMPO 0600 FG
  • 162350Z VRB01KT 4000 0600NW R23/P2000N R15/0350VP2000U BCFG NSC 11/11 Q1019 TEMPO 0600 FG
  • 162320Z 09002KT 4500 2000NW R15/0450N BCFG NSC 12/12 Q1019 TEMPO 0600 FG
  • 162250Z 08003KT 4000 0600NW R23/P2000N R15/0600V0800D BCFG NSC 12/12 Q1019 TEMPO 0600 FG
  • 162220Z 00000KT 6000 2400NW R15/0225V0325N BCFG NSC 13/12 Q1019 BECMG 3000

TAF TAF EDDH
Valid from the 17 at 00:00 until the 18 at 06:00 UTC


162300Z 1700/1806 VRB02KT 4000 BR NSC
TEMPO 1700/1708 0800 FG
PROB30
TEMPO 1700/1707 0400 FG
BECMG 1707/1709 CAVOK
BECMG 1721/1723 3500 BR
TEMPO 1721/1806 0800 FG
PROB30
TEMPO 1722/1806 0400 FG
No reported NOTAMs for that airfield.



MET'MAP, your aeronautical weather chart ! - Copyright ORBIFLY December 2007 - Disclaimer

ORBIFLY MET'MAP TEAM :

Programming & Development : Alexandra Zaïnal
Concept & Development : Baudouin d'Aumeries
Co-Development & Prog : Marc-Olivier Méhu
Technical & hardware support : Manuel Goepfert

Contact : metmap@orbifly.com




SOURCES & CREDITS :

   NOAA